Anniston Metropolitan Airport
KANB : now visible

Airfield :











YOU CAN JOIN US ON...

 
LOGIN :

Register | Disclaimer

   EN    FR    IT 

 









Legend :    VFR   Marginal VFR   IFR   Intensive IFR   Very Intensive IFR
Visi :
Ceiling :
>= 8 km
>= 3000ft
5 to 8 km
1000 to 3000 ft
1500m to 5 km
500 to 1000 ft
800 to 1500m
200 to 500 ft
< 800m
< 200 ft
Symbols :   Thunderstorms  Fog  Heavy snow  Heavy precipitations  Wind > 20 kt






- Airport Elevation : 612 ft
- IATA code : ANB


KANB - Anniston Metropolitan

CURRENT METAR :
  • 251853Z AUTO 00000KT 10SM FEW017 OVC039 23/18 A2995 RMK AO2 SLP136 T02330178 PNO $

EXPIRED METARs :
  • 251753Z AUTO 27005KT 10SM FEW015 SCT022 OVC034 22/18 A2998 RMK AO2 SLP146 6//// T02220183 10228 20194 58007 PNO $
  • 251740Z AUTO 26004KT 10SM SCT016 BKN022 OVC036 22/18 A2998 RMK AO2 T02220183 PNO $
  • 251731Z AUTO 26005KT 10SM BKN014 OVC036 22/18 A2998 RMK AO2 T02220183 PNO $
  • 251653Z AUTO 24003KT 10SM SCT012 SCT017 OVC035 22/19 A3000 RMK AO2 SLP152 T02220189 PNO $

TAF KANB
Valid from the 25 at 18:00 until the 26 at 18:00 UTC


251740Z 2518/2618 VRB03KT P6SM SCT012 OVC035
FM260600 00000KT P6SM BKN017
FM261000 00000KT 6SM BR OVC008
FM261400 00000KT P6SM BKN012
KZTL FIR / North America



MET'MAP, your aeronautical weather chart ! - Copyright ORBIFLY December 2007 - Disclaimer

ORBIFLY MET'MAP TEAM :

Programming & Development : Alexandra Zaïnal
Concept & original design : Baudouin d'Aumeries
Assistance for programming : Marc-Olivier Méhu
Technical & hardware support : Manuel Goepfert

Contact : metmap@orbifly.com




SOURCES & CREDITS :

   NOAA       Earth
Advisory